Time;durP1;ratioP1;P1;durP2;ratioP2;P2;SDS_P1;SDS_P2;PMS_P1;PMS_P2;Temp;Humidity;BMP_temperature;BMP_pressure;BME280_temperature;BME280_humidity;BME280_pressure;Samples;Min_cycle;Max_cycle;Signal;HPM_P1;HPM_P2
2022/11/25 00:01:33;;;;;;;6.03;2.60;;;6.40;93.90;;;9.69;54.52;97490.66;5022499;28;20360;-60
2022/11/25 00:04:01;;;;;;;6.30;2.50;;;6.40;93.80;;;9.62;54.28;97490.47;5022236;28;20238;-60
2022/11/25 00:06:34;;;;;;;7.50;2.97;;;6.40;94.10;;;9.62;54.51;97485.16;5020959;28;20056;-60
2022/11/25 00:09:08;;;;;;;8.37;2.80;;;6.40;94.50;;;9.63;54.34;97486.00;5021079;28;20048;-61
2022/11/25 00:11:41;;;;;;;7.53;2.50;;;6.40;94.60;;;9.64;54.32;97482.38;5022119;28;20061;-60
2022/11/25 00:14:13;;;;;;;5.47;3.50;;;6.30;94.80;;;9.59;54.28;97485.47;5020629;28;20050;-60
2022/11/25 00:16:42;;;;;;;11.40;3.80;;;6.40;94.80;;;9.55;54.52;97480.66;5020987;28;20042;-61
2022/11/25 00:19:16;;;;;;;4.75;2.47;;;6.30;95.30;;;9.56;54.82;97483.16;5022137;28;20104;-60
2022/11/25 00:21:44;;;;;;;5.83;3.20;;;6.30;95.10;;;9.56;54.66;97482.31;5020969;28;20037;-60
2022/11/25 00:24:15;;;;;;;9.17;2.83;;;6.40;95.30;;;9.57;54.73;97478.66;5020469;28;20079;-60
2022/11/25 00:26:43;;;;;;;6.90;3.43;;;6.40;94.90;;;9.55;54.91;97484.13;5021888;28;20049;-60
2022/11/25 00:29:13;;;;;;;8.33;3.17;;;6.40;95.10;;;9.55;54.71;97478.81;5020287;28;20045;-61
2022/11/25 00:31:41;;;;;;;13.47;6.33;;;6.40;95.40;;;9.53;55.15;97477.31;5020782;28;20050;-60
2022/11/25 00:34:12;;;;;;;21.67;9.17;;;6.40;95.50;;;9.56;54.97;97477.84;5020409;28;20120;-60
2022/11/25 00:36:41;;;;;;;14.93;6.97;;;6.40;95.70;;;9.58;55.09;97473.19;5004554;28;20045;-60
2022/11/25 00:39:13;;;;;;;9.60;5.07;;;6.40;95.00;;;9.61;54.70;97472.84;5002362;28;20244;-60
2022/11/25 00:44:37;;;;;;;10.20;5.23;;;6.50;95.00;;;9.60;54.58;97473.88;5024386;28;20048;-60
2022/11/25 00:47:18;;;;;;;8.17;4.60;;;6.40;94.80;;;9.60;54.73;97481.84;5025024;28;20264;-60
2022/11/25 00:49:53;;;;;;;11.83;5.90;;;6.40;94.80;;;9.61;54.83;97485.31;5008468;28;20340;-60
2022/11/25 00:52:26;;;;;;;9.00;4.37;;;6.40;95.10;;;9.61;54.77;97477.34;5024630;28;20046;-61
2022/11/25 00:54:54;;;;;;;7.63;4.20;;;6.40;94.50;;;9.58;54.67;97475.84;5023504;28;20054;-60
2022/11/25 00:57:23;;;;;;;9.87;5.00;;;6.40;94.80;;;9.58;54.87;97481.16;5025319;28;20366;-60
2022/11/25 00:59:51;;;;;;;10.10;3.40;;;6.40;94.80;;;9.59;55.11;97477.50;5024390;28;20046;-60
2022/11/25 01:02:21;;;;;;;6.37;3.47;;;6.50;94.90;;;9.63;54.84;97473.56;5024624;28;20042;-60
2022/11/25 01:04:49;;;;;;;4.67;2.90;;;6.50;94.40;;;9.63;54.96;97476.22;5025024;28;20209;-60
2022/11/25 01:07:18;;;;;;;7.63;3.20;;;6.50;94.70;;;9.64;55.01;97475.22;5040877;28;20064;-60
2022/11/25 01:09:47;;;;;;;5.50;3.00;;;6.50;94.30;;;9.66;54.76;97477.72;5024343;28;20046;-60
2022/11/25 01:12:15;;;;;;;8.13;3.50;;;6.50;94.00;;;9.71;54.88;97478.06;5024277;28;20056;-60
2022/11/25 01:14:43;;;;;;;4.87;2.77;;;6.60;93.60;;;9.75;54.48;97481.22;5039765;28;20248;-60
2022/11/25 01:17:13;;;;;;;6.03;3.20;;;6.60;93.00;;;9.78;54.40;97479.09;5025858;28;20253;-60
2022/11/25 01:19:41;;;;;;;6.37;2.90;;;6.60;93.40;;;9.78;54.30;97473.78;5025291;28;20071;-60
2022/11/25 01:22:09;;;;;;;9.90;5.30;;;6.60;93.00;;;9.81;54.22;97483.28;5024071;28;20075;-60
2022/11/25 01:24:37;;;;;;;3.97;2.40;;;6.60;93.20;;;9.82;54.59;97484.91;5039464;28;20052;-60
2022/11/25 01:27:05;;;;;;;6.00;3.20;;;6.60;93.20;;;9.80;54.35;97487.72;5023834;28;20061;-60
2022/11/25 01:29:33;;;;;;;6.03;3.00;;;6.60;93.00;;;9.81;54.10;97475.28;5023320;28;20056;-60
2022/11/25 01:32:01;;;;;;;8.13;3.10;;;6.60;92.50;;;9.80;54.44;97479.75;5025177;28;20049;-60
2022/11/25 01:34:31;;;;;;;8.10;3.17;;;6.60;93.10;;;9.81;54.53;97493.91;5024138;28;20340;-60
2022/11/25 01:36:59;;;;;;;5.10;2.37;;;6.60;92.90;;;9.80;54.39;97489.56;5025223;28;20057;-60
2022/11/25 01:39:27;;;;;;;4.30;2.87;;;6.60;92.50;;;9.77;54.26;97490.72;5024812;28;20355;-60
2022/11/25 01:42:01;;;;;;;6.90;3.05;;;6.60;92.60;;;9.78;54.53;97491.56;5023990;28;20046;-60
2022/11/25 01:44:31;;;;;;;5.80;2.80;;;6.60;92.50;;;9.76;54.55;97498.84;5024213;28;20052;-60
2022/11/25 01:47:23;;;;;;;7.97;2.90;;;6.50;93.10;;;9.79;54.45;97499.38;5024894;28;20037;-60
2022/11/25 01:50:11;;;;;;;5.70;3.00;;;6.60;92.70;;;9.76;54.20;97494.38;5025055;28;20177;-60
2022/11/25 01:52:47;;;;;;;4.97;3.83;;;6.60;92.20;;;9.80;54.36;97494.88;5023520;28;20214;-60
2022/11/25 01:55:24;;;;;;;6.17;2.83;;;6.60;92.20;;;9.77;54.34;97496.03;5037203;28;20060;-60
2022/11/25 01:58:11;;;;;;;6.33;3.33;;;6.60;92.30;;;9.75;53.98;97487.41;5023521;28;20050;-60
2022/11/25 02:00:39;;;;;;;5.00;3.20;;;6.60;91.20;;;9.74;54.17;97485.72;5007884;28;20053;-60
2022/11/25 02:03:08;;;;;;;8.30;3.93;;;6.50;92.40;;;9.75;53.92;97494.53;5023678;28;20344;-60
2022/11/25 02:05:55;;;;;;;10.53;3.83;;;6.50;92.00;;;9.72;53.99;97487.72;5023493;28;20162;-60
2022/11/25 02:08:25;;;;;;;5.03;3.07;;;6.50;92.40;;;9.70;54.38;97484.38;5024602;28;20146;-60
2022/11/25 02:10:56;;;;;;;4.67;2.60;;;6.60;92.00;;;9.65;54.23;97498.16;5022888;28;20056;-60
2022/11/25 02:13:24;;;;;;;6.77;4.57;;;6.50;92.20;;;9.67;54.17;97495.31;5023125;28;20060;-60
2022/11/25 02:15:52;;;;;;;6.50;3.20;;;6.60;92.50;;;9.68;54.30;97489.03;5023804;28;20244;-60
2022/11/25 02:18:25;;;;;;;4.93;3.23;;;6.60;92.20;;;9.68;54.58;97483.69;5024431;28;20062;-60
2022/11/25 02:20:54;;;;;;;7.23;3.23;;;6.60;92.30;;;9.71;54.29;97480.72;5038941;28;20060;-60
2022/11/25 02:23:52;;;;;;;7.27;3.30;;;6.60;92.30;;;9.75;54.29;97476.75;5007006;28;20053;-61
2022/11/25 02:26:20;;;;;;;5.57;2.33;;;6.60;92.00;;;9.77;54.20;97479.25;5023683;28;20052;-60
2022/11/25 02:28:50;;;;;;;6.03;2.53;;;6.70;92.50;;;9.76;54.32;97483.72;5022803;28;20072;-60
2022/11/25 02:31:20;;;;;;;7.07;2.67;;;6.70;92.30;;;9.77;54.43;97489.88;5006713;28;20064;-60
2022/11/25 02:33:49;;;;;;;4.10;2.27;;;6.70;91.90;;;9.79;54.29;97487.88;5022216;28;20054;-60
2022/11/25 02:36:21;;;;;;;6.10;2.63;;;6.70;92.00;;;9.85;54.40;97495.25;5012363;28;20056;-60
2022/11/25 02:38:59;;;;;;;7.57;2.97;;;6.80;91.70;;;9.84;54.15;97497.06;5003417;28;20054;-60
2022/11/25 02:41:33;;;;;;;7.63;3.13;;;6.80;91.50;;;9.86;54.51;97483.59;5003440;28;20313;-60
2022/11/25 02:44:05;;;;;;;6.63;2.72;;;6.80;91.70;;;9.89;54.07;97485.94;5003010;28;20065;-60
2022/11/25 02:46:33;;;;;;;6.70;2.73;;;6.80;91.50;;;9.91;53.87;97486.63;5002527;28;20434;-60
2022/11/25 02:49:03;;;;;;;11.97;3.07;;;6.80;91.30;;;9.91;54.27;97478.66;5002762;28;20076;-60
2022/11/25 02:51:40;;;;;;;6.50;2.90;;;6.80;91.20;;;9.93;54.35;97471.34;5003297;28;20053;-58
2022/11/25 02:54:11;;;;;;;5.00;2.37;;;6.80;91.90;;;9.96;53.91;97471.00;5002166;28;20064;-59
2022/11/25 02:56:39;;;;;;;6.83;2.63;;;6.80;91.60;;;10.01;53.98;97470.53;5004027;28;20054;-59
2022/11/25 02:59:09;;;;;;;5.67;2.50;;;6.80;90.80;;;10.00;53.95;97464.38;5001922;28;20060;-60
2022/11/25 03:01:38;;;;;;;5.27;2.20;;;6.80;91.20;;;10.04;54.05;97464.88;5018098;28;20054;-61
2022/11/25 03:04:09;;;;;;;10.33;3.43;;;6.80;90.80;;;10.03;53.74;97468.53;4986169;28;20054;-61
2022/11/25 03:06:37;;;;;;;5.63;2.00;;;6.80;90.90;;;10.02;53.76;97464.19;5001618;28;20051;-60
2022/11/25 03:09:07;;;;;;;4.80;2.23;;;6.80;90.80;;;10.00;53.86;97459.06;5002061;28;20050;-60
2022/11/25 03:14:24;;;;;;;6.10;2.83;;;6.70;91.10;;;9.99;53.81;97465.38;5017179;28;20249;-60
2022/11/25 03:16:52;;;;;;;4.33;2.80;;;6.70;90.80;;;9.96;53.53;97468.34;5002144;28;20056;-61
2022/11/25 03:19:20;;;;;;;3.53;2.27;;;6.60;90.90;;;9.93;53.53;97466.03;5003428;28;20061;-62
2022/11/25 03:21:48;;;;;;;5.20;2.23;;;6.70;91.10;;;9.92;53.62;97464.34;5001727;28;20056;-62
2022/11/25 03:24:16;;;;;;;8.03;3.07;;;6.60;90.90;;;9.89;53.77;97462.03;5001484;28;20065;-62
2022/11/25 03:26:47;;;;;;;7.33;2.87;;;6.60;91.10;;;9.85;53.82;97458.03;5018220;28;20390;-62
2022/11/25 03:29:15;;;;;;;4.80;2.83;;;6.50;91.20;;;9.80;53.43;97457.66;5001974;28;20229;-62
2022/11/25 03:31:43;;;;;;;5.23;2.80;;;6.50;91.20;;;9.78;53.54;97459.66;5001719;28;20042;-61
2022/11/25 03:34:12;;;;;;;6.53;3.30;;;6.40;91.60;;;9.72;53.72;97444.34;5017503;28;20244;-61
2022/11/25 03:36:40;;;;;;;7.73;2.63;;;6.40;92.00;;;9.70;53.68;97455.13;5001331;28;20064;-60
2022/11/25 03:39:09;;;;;;;10.63;2.80;;;6.40;91.60;;;9.70;53.64;97449.00;5000885;28;20076;-60
2022/11/25 03:41:37;;;;;;;7.73;3.37;;;6.40;91.90;;;9.68;53.95;97449.16;4999976;28;20061;-60
2022/11/25 03:44:05;;;;;;;6.93;2.73;;;6.40;91.60;;;9.70;53.94;97452.47;5001838;28;20050;-60
2022/11/25 03:46:34;;;;;;;4.90;2.57;;;6.40;92.10;;;9.64;54.11;97445.16;5002111;28;20052;-60
2022/11/25 03:49:05;;;;;;;5.87;3.27;;;6.30;91.60;;;9.61;53.87;97443.63;5017847;28;20057;-60
2022/11/25 03:51:33;;;;;;;8.50;3.10;;;6.40;92.10;;;9.62;53.89;97447.97;5001393;28;20046;-60
2022/11/25 03:54:01;;;;;;;4.93;2.50;;;6.30;91.90;;;9.60;54.11;97449.13;5017040;28;20358;-60
2022/11/25 03:56:35;;;;;;;5.63;2.97;;;6.30;91.90;;;9.60;53.98;97446.47;5017682;28;20353;-60
2022/11/25 03:59:03;;;;;;;6.77;3.13;;;6.20;91.60;;;9.60;53.90;97439.31;5002723;28;20114;-60
2022/11/25 04:01:31;;;;;;;8.77;3.23;;;6.30;92.10;;;9.60;53.82;97443.81;5017585;28;20062;-60
2022/11/25 04:03:59;;;;;;;6.17;2.87;;;6.30;92.20;;;9.61;54.03;97451.59;5002293;28;20050;-60
2022/11/25 04:06:27;;;;;;;6.93;2.80;;;6.30;92.30;;;9.60;53.79;97444.63;5002211;28;20046;-53
2022/11/25 04:08:55;;;;;;;7.60;2.73;;;6.30;92.10;;;9.64;53.80;97453.13;5001371;28;20062;-54
2022/11/25 04:12:45;;;;;;;9.43;2.97;;;6.30;91.80;;;9.69;54.11;97431.38;5001130;28;20050;-53
2022/11/25 04:14:14;;;;;;;3.83;2.60;;;6.40;91.70;;;9.73;53.67;97435.38;5003653;28;20077;-60
2022/11/25 04:16:42;;;;;;;4.93;2.13;;;6.40;91.60;;;9.76;53.80;97435.06;5001279;28;20056;-60
2022/11/25 04:19:10;;;;;;;3.90;2.47;;;6.40;91.40;;;9.76;53.72;97433.22;5000849;28;20064;-60
2022/11/25 04:21:38;;;;;;;6.03;3.33;;;6.50;90.90;;;9.79;53.65;97437.38;5001098;28;20056;-60
2022/11/25 04:24:07;;;;;;;5.67;3.10;;;6.50;90.60;;;9.77;53.66;97434.91;5017108;28;20080;-60
2022/11/25 04:26:35;;;;;;;5.60;3.10;;;6.50;90.50;;;9.77;53.59;97442.88;5001055;28;20049;-60
2022/11/25 04:29:03;;;;;;;7.37;3.00;;;6.50;90.70;;;9.73;53.50;97443.34;5000859;28;20053;-60
2022/11/25 04:31:31;;;;;;;5.57;3.17;;;6.40;90.20;;;9.73;53.51;97438.03;5002285;28;20212;-60
2022/11/25 04:33:59;;;;;;;5.13;2.77;;;6.40;90.50;;;9.71;53.36;97429.38;4983665;28;20064;-60
2022/11/25 04:36:27;;;;;;;4.83;3.00;;;6.40;90.60;;;9.71;53.17;97438.19;5001008;28;20050;-60
2022/11/25 04:38:55;;;;;;;7.13;2.80;;;6.30;91.00;;;9.72;53.47;97431.06;5000646;28;20056;-60
2022/11/25 04:41:23;;;;;;;4.07;2.57;;;6.40;90.70;;;9.72;53.31;97428.41;5017440;28;20050;-60
2022/11/25 04:43:51;;;;;;;4.67;3.17;;;6.40;90.60;;;9.74;53.50;97429.06;4999862;28;20226;-60
2022/11/25 04:46:35;;;;;;;8.13;2.90;;;6.40;90.50;;;9.73;53.53;97433.56;4984736;28;20051;-60
2022/11/25 04:49:04;;;;;;;5.13;2.60;;;6.40;90.50;;;9.73;53.86;97422.06;5001651;28;20050;-60
2022/11/25 04:51:32;;;;;;;7.50;3.30;;;6.40;90.60;;;9.70;53.21;97428.56;5016993;28;20372;-60
2022/11/25 04:54:04;;;;;;;6.27;2.80;;;6.40;90.30;;;9.62;53.40;97424.03;5000378;28;20056;-60
2022/11/25 04:56:33;;;;;;;6.67;3.17;;;6.30;90.20;;;9.57;53.42;97433.47;4985491;28;20379;-60
2022/11/25 05:01:48;;;;;;;7.80;2.57;;;6.10;90.60;;;9.49;53.43;97431.63;5016649;28;20060;-61
2022/11/25 05:04:36;;;;;;;4.87;3.20;;;6.10;91.00;;;9.45;53.42;97439.06;5003604;28;20047;-61
2022/11/25 05:07:04;;;;;;;7.50;3.23;;;6.10;90.70;;;9.44;53.51;97436.56;5000700;28;20390;-60
2022/11/25 05:09:33;;;;;;;6.60;3.43;;;6.10;90.80;;;9.42;53.48;97430.59;5000748;28;20061;-60
2022/11/25 05:12:24;;;;;;;4.93;2.90;;;6.10;90.80;;;9.40;53.63;97432.56;4986619;28;20054;-61
2022/11/25 05:14:52;;;;;;;11.57;3.80;;;6.10;89.80;;;9.38;53.41;97435.41;4984814;28;20197;-60
2022/11/25 05:17:25;;;;;;;7.47;3.20;;;6.10;90.60;;;9.36;53.54;97440.03;5000682;28;20058;-60
2022/11/25 05:19:53;;;;;;;4.53;2.83;;;6.10;90.50;;;9.35;53.58;97442.84;5000657;28;20058;-60
2022/11/25 05:22:26;;;;;;;6.17;3.47;;;6.10;90.40;;;9.33;53.39;97439.53;5000624;28;20046;-60
2022/11/25 05:24:54;;;;;;;6.90;3.27;;;6.10;90.30;;;9.34;53.44;97447.31;5000803;28;20319;-60
2022/11/25 05:27:23;;;;;;;4.10;2.80;;;6.10;89.90;;;9.33;53.45;97455.47;5000379;28;20042;-60
2022/11/25 05:29:52;;;;;;;7.33;2.90;;;6.00;90.30;;;9.34;53.36;97457.94;5002900;28;20256;-60
2022/11/25 05:32:24;;;;;;;7.30;3.70;;;6.10;90.10;;;9.31;53.50;97463.59;5003958;28;20333;-60
2022/11/25 05:34:54;;;;;;;6.63;3.03;;;6.00;89.80;;;9.31;53.32;97452.97;5003996;28;20061;-60
2022/11/25 05:37:22;;;;;;;6.30;2.93;;;6.00;90.00;;;9.31;53.55;97468.91;4988077;28;20065;-60
2022/11/25 05:39:58;;;;;;;8.90;3.87;;;6.00;90.00;;;9.32;53.42;97469.72;5005768;28;20050;-60
2022/11/25 05:42:29;;;;;;;7.33;3.43;;;6.00;90.10;;;9.34;53.30;97467.75;5005362;28;20060;-60
2022/11/25 05:45:01;;;;;;;5.73;4.00;;;6.00;90.20;;;9.36;53.61;97473.72;4988066;28;20053;-61
2022/11/25 05:47:30;;;;;;;7.00;3.63;;;6.00;89.90;;;9.37;53.28;97468.28;5004519;28;20042;-60
2022/11/25 05:49:59;;;;;;;4.03;2.87;;;6.10;90.10;;;9.39;53.23;97481.41;5004458;28;20066;-60
2022/11/25 05:52:27;;;;;;;5.27;3.20;;;6.10;89.10;;;9.35;53.25;97477.41;5005153;28;20355;-60
2022/11/25 05:54:57;;;;;;;4.57;3.03;;;6.00;89.00;;;9.19;53.17;97486.94;5019009;28;20248;-60
2022/11/25 05:57:27;;;;;;;5.83;3.30;;;5.90;90.10;;;9.15;53.46;97485.59;5019900;28;20050;-60
2022/11/25 06:00:08;;;;;;;6.77;2.93;;;5.80;90.40;;;9.11;53.58;97494.84;5015033;28;20058;-61
2022/11/25 06:02:49;;;;;;;5.23;3.23;;;5.80;90.60;;;9.07;53.66;97491.66;5003450;28;20116;-60
2022/11/25 06:05:19;;;;;;;5.10;2.60;;;5.70;91.10;;;9.07;53.59;97485.50;5002807;28;20054;-61
2022/11/25 06:07:47;;;;;;;7.97;3.30;;;5.80;90.60;;;9.06;53.53;97487.34;5002998;28;20052;-60
2022/11/25 06:10:19;;;;;;;5.50;2.70;;;5.80;90.90;;;9.04;53.55;97486.66;5003124;28;20224;-60
2022/11/25 06:12:48;;;;;;;4.50;2.97;;;5.80;90.50;;;9.05;53.60;97488.34;5003538;28;20052;-60
2022/11/25 06:15:16;;;;;;;5.37;3.13;;;5.70;90.80;;;9.03;53.51;97490.31;5004186;28;20387;-60
2022/11/25 06:17:44;;;;;;;5.27;3.00;;;5.70;90.60;;;9.00;53.62;97487.13;5003507;28;20054;-60
2022/11/25 06:20:19;;;;;;;3.50;2.70;;;5.70;91.10;;;9.02;53.75;97493.13;5002972;28;20058;-60
2022/11/25 06:22:47;;;;;;;10.47;3.13;;;5.70;91.00;;;8.98;53.75;97497.09;5003856;28;20070;-60
2022/11/25 06:25:20;;;;;;;7.55;3.13;;;5.70;90.80;;;9.03;53.64;97502.75;5019489;28;20077;-60
2022/11/25 06:27:50;;;;;;;5.30;2.70;;;5.70;91.00;;;9.00;53.48;97489.78;5003217;28;20046;-60
2022/11/25 06:30:37;;;;;;;4.37;3.17;;;5.70;90.60;;;9.02;53.60;97495.78;5003407;28;20058;-60
2022/11/25 06:33:14;;;;;;;10.20;4.03;;;5.70;90.50;;;9.01;53.57;97492.28;5002811;28;20363;-60
2022/11/25 06:35:44;;;;;;;5.23;3.33;;;5.80;90.30;;;9.05;53.31;97500.75;5003152;28;20210;-60
2022/11/25 06:38:12;;;;;;;7.40;4.90;;;5.80;90.10;;;9.04;53.55;97499.94;5004081;28;20056;-60
2022/11/25 06:40:40;;;;;;;8.53;3.90;;;5.80;89.90;;;9.06;53.53;97508.56;5000382;28;20054;-60
2022/11/25 06:43:08;;;;;;;7.70;3.97;;;5.80;90.10;;;9.11;53.24;97516.09;5004139;28;20056;-60
2022/11/25 06:45:35;;;;;;;10.80;5.83;;;5.80;89.90;;;9.12;53.34;97519.59;5003510;28;20053;-60
2022/11/25 06:48:04;;;;;;;10.77;3.93;;;5.70;89.50;;;9.11;53.39;97525.88;5003995;28;20052;-61
2022/11/25 06:50:32;;;;;;;5.13;3.40;;;5.70;90.30;;;9.12;53.30;97516.94;5004181;28;20056;-60
2022/11/25 06:53:01;;;;;;;8.90;3.50;;;5.70;90.20;;;9.16;53.25;97527.06;5004120;28;20042;-60
2022/11/25 06:55:29;;;;;;;8.30;5.03;;;5.80;90.10;;;9.16;53.37;97529.72;5003068;28;20046;-61
2022/11/25 06:57:56;;;;;;;8.93;4.53;;;5.80;89.60;;;9.17;52.96;97527.91;5002476;28;20233;-60
2022/11/25 07:00:44;;;;;;;9.93;5.47;;;5.70;89.80;;;9.20;53.03;97522.28;5003865;28;20050;-60
2022/11/25 07:03:12;;;;;;;9.30;6.10;;;5.80;90.10;;;9.22;53.23;97533.59;5003836;28;20046;-60
2022/11/25 07:05:40;;;;;;;8.23;4.07;;;5.80;89.90;;;9.19;52.97;97525.91;5017887;28;20058;-60
2022/11/25 07:08:07;;;;;;;7.97;5.33;;;5.80;90.20;;;9.18;53.07;97532.25;5003747;28;20042;-60
2022/11/25 07:10:35;;;;;;;9.40;4.20;;;5.80;89.60;;;9.16;53.08;97529.72;5002745;28;20354;-60
2022/11/25 07:13:03;;;;;;;6.63;4.77;;;5.80;89.60;;;9.18;53.10;97525.09;5002433;28;20237;-60
2022/11/25 07:15:33;;;;;;;8.37;3.87;;;5.80;89.50;;;9.21;53.11;97524.78;5003095;28;20252;-60
2022/11/25 07:18:01;;;;;;;6.77;3.10;;;5.80;89.50;;;9.24;53.04;97527.13;5003600;28;20046;-60
2022/11/25 07:20:31;;;;;;;5.13;2.50;;;5.90;89.60;;;9.29;52.94;97539.13;5003482;28;20046;-61
2022/11/25 07:22:59;;;;;;;5.50;3.53;;;5.90;89.20;;;9.34;52.76;97547.44;5003410;28;20096;-60
2022/11/25 07:25:27;;;;;;;4.90;3.40;;;5.90;89.10;;;9.34;53.01;97552.75;5002763;28;20068;-60
2022/11/25 07:27:58;;;;;;;9.03;3.27;;;6.00;88.50;;;9.38;52.94;97548.81;5003111;28;20052;-60
2022/11/25 07:30:26;;;;;;;5.20;2.93;;;6.00;88.60;;;9.39;53.04;97551.31;5002291;28;20050;-60
2022/11/25 07:33:14;;;;;;;3.33;2.40;;;6.00;87.80;;;9.41;52.79;97551.97;5003194;28;20046;-60
2022/11/25 07:35:42;;;;;;;6.23;3.00;;;6.00;88.20;;;9.46;52.88;97554.19;5002710;28;20047;-60
2022/11/25 07:38:09;;;;;;;5.87;2.60;;;6.10;88.10;;;9.51;52.91;97553.72;5003024;28;20042;-60
2022/11/25 07:40:37;;;;;;;5.53;3.20;;;6.20;87.90;;;9.57;52.91;97556.56;5003107;28;20050;-60
2022/11/25 07:43:05;;;;;;;4.43;2.80;;;6.30;87.40;;;9.61;52.68;97563.22;5003209;28;20046;-60
2022/11/25 07:45:33;;;;;;;4.53;2.90;;;6.40;87.50;;;9.66;52.51;97560.13;5002678;28;20052;-60
2022/11/25 07:48:07;;;;;;;5.68;2.67;;;6.40;86.70;;;9.70;52.50;97573.94;5002439;28;20058;-60
2022/11/25 07:50:35;;;;;;;4.50;2.33;;;6.40;86.10;;;9.72;52.46;97575.44;5002855;28;20042;-60
2022/11/25 07:53:02;;;;;;;4.47;2.20;;;6.60;85.00;;;9.73;52.20;97585.09;5001900;28;20048;-60
2022/11/25 07:55:30;;;;;;;3.83;2.97;;;6.60;84.70;;;9.76;52.29;97582.09;5002466;28;20293;-61
2022/11/25 07:57:58;;;;;;;3.33;2.40;;;6.60;84.70;;;9.79;51.95;97589.78;5002959;28;20052;-61
2022/11/25 08:00:26;;;;;;;6.67;3.00;;;6.60;84.10;;;9.78;52.10;97597.91;5001546;28;20054;-60
2022/11/25 08:02:54;;;;;;;5.67;2.77;;;6.60;85.10;;;9.78;52.37;97603.22;5002862;28;20046;-60
2022/11/25 08:05:22;;;;;;;3.57;2.20;;;6.60;85.90;;;9.77;52.80;97602.38;5001069;28;20046;-60
2022/11/25 08:07:50;;;;;;;6.37;2.60;;;6.60;86.00;;;9.44;53.63;97606.63;5002380;28;20048;-60
2022/11/25 08:10:18;;;;;;;6.43;3.40;;;6.40;87.80;;;9.51;53.61;97594.41;5002723;28;20042;-61
2022/11/25 08:12:46;;;;;;;9.77;4.40;;;6.30;88.80;;;9.65;53.33;97580.56;5002624;28;20046;-60
2022/11/25 08:15:13;;;;;;;5.40;3.87;;;6.30;89.50;;;9.72;53.18;97588.72;5002012;28;20048;-61
2022/11/25 08:17:41;;;;;;;7.03;4.23;;;6.40;89.10;;;9.85;53.19;97569.69;5001410;28;20046;-60
2022/11/25 08:20:09;;;;;;;5.97;2.83;;;6.60;89.20;;;9.96;53.18;97568.56;5002462;28;20050;-60
2022/11/25 08:22:37;;;;;;;3.27;1.90;;;6.70;88.80;;;10.02;52.91;97571.44;5002566;28;20348;-60
2022/11/25 08:25:06;;;;;;;2.70;1.90;;;6.70;88.80;;;10.08;53.07;97563.78;5002031;28;20050;-60
2022/11/25 08:27:34;;;;;;;9.60;2.43;;;6.80;88.70;;;10.13;52.86;97567.66;5001383;28;20053;-61
2022/11/25 08:30:02;;;;;;;7.97;2.60;;;6.90;88.50;;;10.17;52.74;97576.16;5002297;28;20336;-60
2022/11/25 08:32:30;;;;;;;5.93;2.33;;;6.90;88.30;;;10.19;52.78;97577.63;5002525;28;20060;-61
2022/11/25 08:34:58;;;;;;;5.67;2.27;;;7.00;88.10;;;10.25;53.20;97584.16;5000747;28;20050;-60
2022/11/25 08:37:25;;;;;;;3.70;2.13;;;7.00;88.40;;;10.32;52.66;97590.53;5000560;28;20046;-61
2022/11/25 08:39:53;;;;;;;4.73;2.33;;;7.10;88.30;;;10.36;52.79;97594.53;5002509;28;20064;-61
2022/11/25 08:42:22;;;;;;;8.03;4.40;;;7.10;88.10;;;10.38;52.92;97594.38;5001526;28;20276;-61
2022/11/25 08:44:54;;;;;;;6.77;4.00;;;7.10;88.10;;;10.39;53.15;97594.22;5000598;28;20054;-60
2022/11/25 08:47:23;;;;;;;5.27;2.67;;;7.20;88.10;;;10.43;52.98;97597.41;5000680;28;20058;-61
2022/11/25 08:49:54;;;;;;;5.17;3.27;;;7.20;87.60;;;10.49;53.02;97593.25;5001194;28;20226;-61
2022/11/25 08:52:23;;;;;;;3.67;2.20;;;7.20;87.50;;;10.56;52.92;97602.25;5017287;28;20309;-60
2022/11/25 08:54:50;;;;;;;4.07;2.30;;;7.30;86.90;;;10.59;52.68;97608.09;5001825;28;20375;-61
2022/11/25 08:57:18;;;;;;;6.27;3.20;;;7.40;86.50;;;10.68;52.46;97605.44;5002327;28;20141;-61
2022/11/25 08:59:46;;;;;;;4.97;2.70;;;7.50;86.40;;;10.77;52.43;97604.47;5002018;28;20060;-61
2022/11/25 09:02:15;;;;;;;4.33;2.50;;;7.60;86.20;;;10.80;52.10;97606.81;5002159;28;20056;-61
2022/11/25 09:04:43;;;;;;;2.80;1.50;;;7.60;85.80;;;10.88;52.23;97606.84;5004249;28;20046;-61
2022/11/25 09:07:11;;;;;;;3.17;1.63;;;7.70;85.20;;;11.00;51.92;97610.00;5004810;28;20052;-61
2022/11/25 09:09:39;;;;;;;6.23;2.00;;;7.90;85.20;;;11.08;51.77;97618.00;5005948;28;20043;-61
2022/11/25 09:12:07;;;;;;;3.97;1.90;;;7.90;84.50;;;11.15;51.93;97610.19;5005754;28;20056;-61
2022/11/25 09:14:35;;;;;;;4.37;1.87;;;8.00;83.40;;;11.23;51.99;97627.00;5004124;28;20058;-61
2022/11/25 09:17:11;;;;;;;5.37;1.57;;;8.10;83.50;;;11.31;51.29;97628.84;5005543;28;20069;-61
2022/11/25 09:19:39;;;;;;;3.30;1.90;;;8.20;82.20;;;11.30;51.42;97626.34;5005329;28;20058;-61
2022/11/25 09:22:07;;;;;;;4.07;2.50;;;8.20;82.40;;;11.22;50.98;97630.69;5005481;28;20118;-60
2022/11/25 09:24:35;;;;;;;4.13;2.00;;;8.10;81.30;;;11.26;51.43;97625.00;5005139;28;20244;-60
2022/11/25 09:27:03;;;;;;;3.20;1.73;;;8.20;81.70;;;11.25;51.32;97634.03;5004465;28;20050;-61
2022/11/25 09:29:31;;;;;;;4.30;1.87;;;8.20;81.50;;;11.28;51.28;97629.16;5006002;28;20042;-61
2022/11/25 09:31:59;;;;;;;4.80;1.90;;;8.20;81.40;;;11.31;51.02;97636.00;5004497;28;20050;-61
2022/11/25 09:34:27;;;;;;;6.03;2.30;;;8.20;81.90;;;11.31;51.24;97639.50;5004057;28;20046;-61
2022/11/25 09:36:55;;;;;;;3.63;1.77;;;8.20;81.40;;;11.33;51.11;97648.16;5005457;28;20050;-61
2022/11/25 09:39:28;;;;;;;3.37;1.97;;;8.20;82.10;;;11.38;51.37;97637.00;5005686;28;20054;-61
2022/11/25 09:48:35;;;;;;;7.00;3.13;;;8.30;81.20;;;11.49;51.10;97631.34;5004593;28;20049;-61
2022/11/25 09:51:49;;;;;;;6.10;3.97;;;8.30;82.10;;;11.53;50.98;97638.00;5004863;28;20069;-61
2022/11/25 09:54:37;;;;;;;18.87;14.10;;;8.30;82.00;;;11.60;51.05;97625.66;4999505;28;20061;-61
2022/11/25 09:57:36;;;;;;;20.50;9.23;;;8.30;83.60;;;11.67;50.86;97638.31;5005138;28;20057;-61
2022/11/25 10:00:16;;;;;;;17.80;9.30;;;8.40;82.30;;;11.76;51.03;97635.47;5005108;28;20148;-61
2022/11/25 10:03:25;;;;;;;9.40;4.00;;;8.50;82.50;;;11.85;51.05;97640.81;5004864;28;20050;-61
2022/11/25 10:06:16;;;;;;;4.43;2.70;;;8.70;81.00;;;11.89;51.02;97644.81;4990568;28;20056;-61
2022/11/25 10:08:55;;;;;;;5.23;2.50;;;8.70;81.70;;;11.96;50.79;97648.47;5004141;28;20050;-61
2022/11/25 10:11:51;;;;;;;8.10;2.60;;;8.80;82.00;;;12.08;51.09;97640.94;5003481;28;20285;-61
2022/11/25 10:14:59;;;;;;;3.30;2.17;;;9.00;82.10;;;12.18;51.33;97647.78;5004132;28;20042;-61
2022/11/25 10:17:49;;;;;;;5.70;2.43;;;9.00;81.10;;;12.28;51.25;97650.25;5004690;28;20046;-61
2022/11/25 10:20:36;;;;;;;6.20;4.73;;;9.10;82.00;;;12.33;50.95;97650.56;5003715;28;20256;-61
2022/11/25 10:23:26;;;;;;;6.80;3.27;;;9.20;81.30;;;12.32;50.92;97648.88;5003661;28;20052;-61
2022/11/25 10:26:01;;;;;;;2.90;1.83;;;9.20;80.80;;;12.34;50.50;97657.56;5003228;28;20046;-61
2022/11/25 10:28:33;;;;;;;5.23;2.20;;;9.20;81.60;;;12.34;50.52;97657.56;5003115;28;20058;-61
2022/11/25 10:31:31;;;;;;;3.37;2.33;;;9.20;80.70;;;12.24;50.53;97658.78;5004384;28;20058;-61
2022/11/25 10:34:01;;;;;;;3.63;1.90;;;9.10;80.50;;;12.30;50.27;97664.25;5004174;28;20050;-61
2022/11/25 10:36:35;;;;;;;13.60;5.00;;;9.10;81.00;;;12.42;50.69;97659.38;5003347;28;20044;-61
2022/11/25 10:39:25;;;;;;;5.77;2.73;;;9.20;81.00;;;12.29;50.63;97659.94;5004504;28;20125;-61
2022/11/25 10:42:11;;;;;;;4.97;2.57;;;9.10;81.00;;;12.31;50.91;97663.25;5003261;28;20052;-61
2022/11/25 10:44:40;;;;;;;4.83;2.70;;;9.00;81.90;;;12.26;50.69;97667.44;5003362;28;20360;-61
2022/11/25 10:47:19;;;;;;;8.27;3.00;;;9.00;82.10;;;12.23;50.96;97681.94;5004035;28;20046;-61
2022/11/25 10:50:24;;;;;;;7.10;3.53;;;8.90;82.50;;;11.80;51.97;97692.00;5003125;28;20042;-61
2022/11/25 10:53:13;;;;;;;5.60;2.97;;;8.80;84.10;;;11.82;52.06;97684.66;5004053;28;20356;-61
2022/11/25 10:56:02;;;;;;;9.60;5.90;;;8.60;85.70;;;11.95;52.04;97690.34;5002431;28;20054;-61
2022/11/25 10:58:36;;;;;;;8.87;5.63;;;8.60;86.10;;;11.89;52.09;97706.16;5004096;28;20046;-61
2022/11/25 11:01:35;;;;;;;10.10;6.20;;;8.40;84.60;;;11.32;51.97;97702.50;5004191;28;20272;-61
2022/11/25 11:04:14;;;;;;;9.00;6.50;;;8.10;86.10;;;11.51;51.33;97703.97;4994413;28;20058;-61
2022/11/25 11:06:48;;;;;;;8.20;7.33;;;7.80;88.20;;;11.49;52.02;97703.31;5003787;28;20054;-61